Time;durP1;ratioP1;P1;durP2;ratioP2;P2;SDS_P1;SDS_P2;PMS_P1;PMS_P2;Temp;Humidity;BMP_temperature;BMP_pressure;BME280_temperature;BME280_humidity;BME280_pressure;Samples;Min_cycle;Max_cycle;Signal;HPM_P1;HPM_P2
2022/08/01 00:00:28;;;;;;;5.87;4.40;;;21.50;99.90;;;;;;5011280;28;20030;-73
2022/08/01 00:02:54;;;;;;;6.77;4.60;;;21.50;99.90;;;;;;5010908;28;20030;-74
2022/08/01 00:05:19;;;;;;;5.90;5.30;;;21.40;99.90;;;;;;5003907;28;20053;-72
2022/08/01 00:07:45;;;;;;;5.00;4.53;;;21.40;99.90;;;;;;5000512;28;20113;-73
2022/08/01 00:10:13;;;;;;;9.07;5.10;;;21.40;99.90;;;;;;5026081;28;20033;-73
2022/08/01 00:12:39;;;;;;;5.25;4.63;;;21.30;99.90;;;;;;5011139;28;20048;-73
2022/08/01 00:15:06;;;;;;;6.47;4.75;;;21.30;99.90;;;;;;5009903;28;20486;-73
2022/08/01 00:17:32;;;;;;;6.90;4.78;;;21.30;99.90;;;;;;5009788;28;20041;-74
2022/08/01 00:19:58;;;;;;;6.85;5.15;;;21.20;99.90;;;;;;5009949;28;20026;-73
2022/08/01 00:22:24;;;;;;;7.53;5.30;;;21.20;99.90;;;;;;5011258;28;20695;-73
2022/08/01 00:24:49;;;;;;;6.67;5.37;;;21.10;99.90;;;;;;4993105;28;20849;-73
2022/08/01 00:27:15;;;;;;;7.63;5.77;;;21.10;99.90;;;;;;5011042;28;20026;-73
2022/08/01 00:29:41;;;;;;;7.17;5.17;;;21.10;99.90;;;;;;5009964;28;20036;-73
2022/08/01 00:32:07;;;;;;;6.57;4.90;;;21.10;99.90;;;;;;5011061;28;20030;-73
2022/08/01 00:34:33;;;;;;;6.78;5.50;;;21.10;99.90;;;;;;5010676;28;20022;-73
2022/08/01 00:36:59;;;;;;;8.50;5.70;;;21.10;99.90;;;;;;4993450;28;20038;-73
2022/08/01 00:39:25;;;;;;;7.90;6.27;;;21.00;99.90;;;;;;4996975;28;20036;-73
2022/08/01 00:41:50;;;;;;;7.30;5.80;;;21.00;99.90;;;;;;5010893;28;20034;-73
2022/08/01 00:44:16;;;;;;;8.05;5.93;;;21.00;99.90;;;;;;5009220;28;20176;-73
2022/08/01 00:46:42;;;;;;;6.67;5.87;;;20.90;99.90;;;;;;5010956;28;20482;-73
2022/08/01 00:49:08;;;;;;;6.27;5.67;;;20.90;99.90;;;;;;5011362;28;20542;-73
2022/08/01 00:51:34;;;;;;;9.37;6.87;;;20.80;99.90;;;;;;4997076;28;20482;-74
2022/08/01 00:54:00;;;;;;;6.40;5.73;;;20.80;99.90;;;;;;5013087;28;20319;-74
2022/08/01 00:56:26;;;;;;;7.95;6.00;;;20.80;99.90;;;;;;4996892;28;20033;-74
2022/08/01 00:58:52;;;;;;;6.88;6.22;;;20.80;99.90;;;;;;5013089;28;20444;-74
2022/08/01 01:01:20;;;;;;;7.35;5.72;;;20.80;99.90;;;;;;5011680;28;20421;-73
2022/08/01 01:03:49;;;;;;;6.57;5.97;;;20.80;99.90;;;;;;5012752;28;20045;-73
2022/08/01 01:06:52;;;;;;;7.00;6.30;;;20.80;99.90;;;;;;5012975;28;20587;-73
2022/08/01 01:09:50;;;;;;;8.85;6.22;;;20.80;99.90;;;;;;5014247;28;20033;-73
2022/08/01 01:12:25;;;;;;;11.05;6.70;;;20.70;99.90;;;;;;4999054;28;20031;-75
2022/08/01 01:15:09;;;;;;;6.57;5.97;;;20.70;99.90;;;;;;4994179;28;20030;-74
2022/08/01 01:17:50;;;;;;;9.65;6.80;;;20.60;99.90;;;;;;4994340;28;20142;-73
2022/08/01 01:20:16;;;;;;;7.97;6.60;;;20.60;99.90;;;;;;4993233;28;20445;-74
2022/08/01 01:22:58;;;;;;;8.80;6.93;;;20.60;99.90;;;;;;4992907;28;20030;-73
2022/08/01 01:25:48;;;;;;;7.25;6.55;;;20.60;99.90;;;;;;4992858;28;20569;-73
2022/08/01 01:28:29;;;;;;;7.25;6.07;;;20.50;99.90;;;;;;4992930;28;20052;-73
2022/08/01 01:30:55;;;;;;;7.45;6.75;;;20.50;99.90;;;;;;4998425;28;20108;-73
2022/08/01 01:33:21;;;;;;;8.13;7.03;;;20.40;99.90;;;;;;5012037;28;20038;-73
2022/08/01 01:35:51;;;;;;;9.07;7.80;;;20.40;99.90;;;;;;4996490;28;20034;-73
2022/08/01 01:38:28;;;;;;;7.10;5.88;;;20.40;99.90;;;;;;4996819;28;20052;-73
2022/08/01 01:40:53;;;;;;;6.68;5.57;;;20.40;99.90;;;;;;4995272;28;20030;-73
2022/08/01 01:43:19;;;;;;;8.13;6.87;;;20.30;99.90;;;;;;4995668;28;20042;-73
2022/08/01 01:45:47;;;;;;;8.63;6.28;;;20.30;99.90;;;;;;4978530;28;20026;-73
2022/08/01 01:48:15;;;;;;;6.65;5.85;;;20.30;99.90;;;;;;4992674;28;20058;-75
2022/08/01 01:50:41;;;;;;;7.30;6.60;;;20.30;99.90;;;;;;4992655;28;20030;-74
2022/08/01 01:53:06;;;;;;;10.40;6.60;;;20.30;99.90;;;;;;4992260;28;20076;-75
2022/08/01 01:55:32;;;;;;;7.63;6.63;;;20.30;99.90;;;;;;4992322;28;20062;-73
2022/08/01 01:57:58;;;;;;;7.43;6.43;;;20.30;99.90;;;;;;4992578;28;20038;-73
2022/08/01 02:00:24;;;;;;;8.63;7.47;;;20.30;99.90;;;;;;4991937;28;20867;-73
2022/08/01 02:02:51;;;;;;;7.07;6.38;;;20.30;99.90;;;;;;4991515;28;20031;-73
2022/08/01 02:05:17;;;;;;;;;;;20.30;99.90;;;;;;4958963;28;20066;-73
2022/08/01 02:07:42;;;;;;;7.70;6.60;;;20.30;99.90;;;;;;4959439;28;20506;-73
2022/08/01 02:10:08;;;;;;;7.70;6.90;;;20.20;99.90;;;;;;4975250;28;20029;-72
2022/08/01 02:12:36;;;;;;;7.30;6.30;;;20.20;99.90;;;;;;4991650;28;20397;-73
2022/08/01 02:15:03;;;;;;;6.85;5.93;;;20.20;99.90;;;;;;4975559;28;20023;-72
2022/08/01 02:17:29;;;;;;;7.60;5.88;;;20.20;99.90;;;;;;4991816;28;20076;-72
2022/08/01 02:19:55;;;;;;;7.07;6.10;;;20.20;99.90;;;;;;4975909;28;20414;-73
2022/08/01 02:22:27;;;;;;;6.90;6.23;;;20.20;99.90;;;;;;4959760;28;20031;-72
2022/08/01 02:25:19;;;;;;;6.63;5.82;;;20.10;99.90;;;;;;4975817;28;20026;-72
2022/08/01 02:28:01;;;;;;;7.60;5.82;;;20.10;99.90;;;;;;4977834;28;20026;-73
2022/08/01 02:30:27;;;;;;;5.70;5.20;;;20.10;99.90;;;;;;4993157;28;20106;-73
2022/08/01 02:33:03;;;;;;;7.15;5.45;;;20.10;99.90;;;;;;4975377;28;20060;-72
2022/08/01 02:35:32;;;;;;;6.93;6.05;;;20.00;99.90;;;;;;4976117;28;20034;-72
2022/08/01 02:37:58;;;;;;;6.47;5.80;;;20.00;99.90;;;;;;4975481;28;20038;-75
2022/08/01 02:40:27;;;;;;;6.50;5.90;;;20.00;99.90;;;;;;4993514;28;20033;-72
2022/08/01 02:42:53;;;;;;;6.47;5.72;;;19.90;99.90;;;;;;4994861;28;20544;-73
2022/08/01 02:45:20;;;;;;;6.63;5.90;;;20.00;99.90;;;;;;4978698;28;20041;-72
2022/08/01 02:47:47;;;;;;;6.60;6.00;;;19.90;99.90;;;;;;4978459;28;20034;-73
2022/08/01 02:50:13;;;;;;;7.40;6.00;;;19.90;99.90;;;;;;4975360;28;20030;-73
2022/08/01 02:52:39;;;;;;;10.20;5.70;;;19.90;99.90;;;;;;4975151;28;20041;-73
2022/08/01 02:55:05;;;;;;;6.28;5.65;;;19.90;99.90;;;;;;4975024;28;20034;-73
2022/08/01 02:57:31;;;;;;;6.35;5.75;;;19.80;99.90;;;;;;4975586;28;20034;-72
2022/08/01 02:59:56;;;;;;;9.20;5.63;;;19.70;99.90;;;;;;4975126;28;20034;-72
2022/08/01 03:02:23;;;;;;;;;;;19.70;99.90;;;;;;4959728;28;20105;-72
2022/08/01 03:04:50;;;;;;;7.40;5.88;;;19.70;99.90;;;;;;4974831;28;19997;-72
2022/08/01 03:07:16;;;;;;;;;;;19.70;99.90;;;;;;4991796;28;20030;-73
2022/08/01 03:09:44;;;;;;;7.32;6.38;;;19.60;99.90;;;;;;4994396;28;20296;-72
2022/08/01 03:12:14;;;;;;;8.93;6.43;;;19.60;99.90;;;;;;4994321;28;20129;-73
2022/08/01 03:14:40;;;;;;;8.23;5.63;;;19.70;99.90;;;;;;4994409;28;20045;-73
2022/08/01 03:17:06;;;;;;;7.70;5.85;;;19.70;99.90;;;;;;4994480;28;20037;-72
2022/08/01 03:19:32;;;;;;;6.70;6.00;;;19.70;99.90;;;;;;4994326;28;20038;-71
2022/08/01 03:22:03;;;;;;;8.20;6.03;;;19.70;99.90;;;;;;4994345;28;20038;-72
2022/08/01 03:24:28;;;;;;;8.07;5.78;;;19.70;99.90;;;;;;4985496;28;20172;-72
2022/08/01 03:26:54;;;;;;;9.07;6.40;;;19.60;99.90;;;;;;4993745;28;20102;-73
2022/08/01 03:29:24;;;;;;;7.43;6.27;;;19.60;99.90;;;;;;5006748;28;20033;-72
2022/08/01 03:31:50;;;;;;;7.38;6.20;;;19.50;99.90;;;;;;4980307;28;20269;-72
2022/08/01 03:34:16;;;;;;;8.87;7.20;;;19.50;99.90;;;;;;5000748;28;20030;-72
2022/08/01 03:37:19;;;;;;;6.07;5.47;;;19.50;99.90;;;;;;4975187;28;20038;-72
2022/08/01 03:39:48;;;;;;;7.50;5.25;;;19.50;99.90;;;;;;4979709;28;20397;-73
2022/08/01 03:42:18;;;;;;;8.48;6.07;;;19.50;99.90;;;;;;4993773;28;20021;-72
2022/08/01 03:44:53;;;;;;;7.82;6.30;;;19.40;99.90;;;;;;4998451;28;20084;-71
2022/08/01 03:47:19;;;;;;;7.05;6.35;;;19.40;99.90;;;;;;4990641;28;20038;-73
2022/08/01 03:49:45;;;;;;;6.83;5.20;;;19.30;99.90;;;;;;4972031;28;20528;-71
2022/08/01 03:52:11;;;;;;;7.97;6.10;;;19.30;99.90;;;;;;4989022;28;20102;-73
2022/08/01 03:54:42;;;;;;;8.60;6.10;;;19.30;99.90;;;;;;4989561;28;20113;-73
2022/08/01 03:57:07;;;;;;;7.75;6.15;;;19.20;99.90;;;;;;4973823;28;20026;-74
2022/08/01 03:59:34;;;;;;;6.00;5.40;;;19.20;99.90;;;;;;4993640;28;20037;-73
2022/08/01 04:02:00;;;;;;;;;;;19.20;99.90;;;;;;4986880;28;20018;-73
2022/08/01 04:04:25;;;;;;;7.50;5.90;;;19.20;99.90;;;;;;5000456;28;19955;-74
2022/08/01 04:06:53;;;;;;;6.73;5.80;;;19.20;99.90;;;;;;4995482;28;20038;-72
2022/08/01 04:09:20;;;;;;;7.22;5.78;;;19.10;99.90;;;;;;4990538;28;20406;-74
2022/08/01 04:11:47;;;;;;;6.80;5.47;;;19.10;99.90;;;;;;5003513;28;20026;-73
2022/08/01 04:14:12;;;;;;;5.97;5.38;;;19.10;99.90;;;;;;4991708;28;20458;-72
2022/08/01 04:16:38;;;;;;;7.27;4.83;;;19.10;99.90;;;;;;4991257;28;20057;-72
2022/08/01 04:19:07;;;;;;;5.20;4.70;;;19.10;99.90;;;;;;4991248;28;20377;-73
2022/08/01 04:21:33;;;;;;;5.78;4.72;;;19.10;99.90;;;;;;4989895;28;20030;-73
2022/08/01 04:24:07;;;;;;;6.95;5.13;;;19.20;99.90;;;;;;4989585;28;20064;-71
2022/08/01 04:26:33;;;;;;;10.05;5.60;;;19.10;99.90;;;;;;4992721;28;20060;-72
2022/08/01 04:29:01;;;;;;;;;;;19.20;99.90;;;;;;4994316;28;20061;-71
2022/08/01 04:31:26;;;;;;;9.23;4.80;;;19.20;99.90;;;;;;4993900;28;19917;-72
2022/08/01 04:33:52;;;;;;;7.43;4.87;;;19.20;99.90;;;;;;4993776;28;20022;-72
2022/08/01 04:36:19;;;;;;;7.18;4.50;;;19.20;99.90;;;;;;4990586;28;20045;-72
2022/08/01 04:38:45;;;;;;;7.13;4.32;;;19.30;99.90;;;;;;4993524;28;20034;-72
2022/08/01 04:41:12;;;;;;;5.25;4.43;;;19.30;99.90;;;;;;4994148;28;20026;-71
2022/08/01 04:43:38;;;;;;;8.25;5.68;;;19.40;99.90;;;;;;4991369;28;20074;-72
2022/08/01 04:46:05;;;;;;;15.73;6.07;;;19.40;99.90;;;;;;4990323;28;20483;-72
2022/08/01 04:48:33;;;;;;;7.93;5.05;;;19.50;99.90;;;;;;4993571;28;20030;-72
2022/08/01 04:50:59;;;;;;;5.57;4.70;;;19.50;99.90;;;;;;4994702;28;20058;-72
2022/08/01 04:53:25;;;;;;;9.57;4.70;;;19.50;99.90;;;;;;4976871;28;20085;-72
2022/08/01 04:55:51;;;;;;;;;;;19.50;99.90;;;;;;4995154;28;20422;-72
2022/08/01 04:58:17;;;;;;;5.72;4.50;;;19.60;99.90;;;;;;4994851;28;19964;-72
2022/08/01 05:00:43;;;;;;;8.30;4.63;;;19.60;99.90;;;;;;4993457;28;20121;-72
2022/08/01 05:03:09;;;;;;;7.18;4.93;;;19.60;99.90;;;;;;4994422;28;20105;-72
2022/08/01 05:05:35;;;;;;;4.90;4.30;;;19.60;99.90;;;;;;4994713;28;20504;-71
2022/08/01 05:08:00;;;;;;;5.70;4.32;;;19.60;99.90;;;;;;4994630;28;20031;-71
2022/08/01 05:10:27;;;;;;;6.27;4.10;;;19.60;99.90;;;;;;5003902;28;20034;-71
2022/08/01 05:12:53;;;;;;;4.88;4.20;;;19.70;99.90;;;;;;5011359;28;20033;-73
2022/08/01 05:15:19;;;;;;;6.10;4.00;;;19.70;99.90;;;;;;5000658;28;20101;-73
2022/08/01 05:17:44;;;;;;;4.10;3.37;;;19.80;99.90;;;;;;4969713;28;20294;-73
2022/08/01 05:20:11;;;;;;;6.47;3.20;;;19.80;99.90;;;;;;4994143;28;20056;-73
2022/08/01 05:22:37;;;;;;;;;;;19.90;99.90;;;;;;4989452;28;20038;-74
2022/08/01 05:25:07;;;;;;;7.18;3.75;;;20.00;99.90;;;;;;4984466;28;20524;-73
2022/08/01 05:27:38;;;;;;;4.13;3.72;;;20.00;99.90;;;;;;4990180;28;20038;-73
2022/08/01 05:30:04;;;;;;;8.52;3.90;;;20.10;99.90;;;;;;4992641;28;20022;-75
2022/08/01 05:32:31;;;;;;;;;;;20.20;99.90;;;;;;4994318;28;20395;-75
2022/08/01 05:34:57;;;;;;;3.47;2.70;;;20.30;99.90;;;;;;4993602;28;20362;-74
2022/08/01 05:37:23;;;;;;;4.00;2.77;;;20.40;99.90;;;;;;4992925;28;20108;-74
2022/08/01 05:39:49;;;;;;;4.03;2.70;;;20.40;99.90;;;;;;4993657;28;20034;-76
2022/08/01 05:42:14;;;;;;;7.83;2.67;;;20.50;99.90;;;;;;4993043;28;20061;-75
2022/08/01 05:44:40;;;;;;;9.73;3.40;;;20.60;99.90;;;;;;4993541;28;20038;-75
2022/08/01 05:47:06;;;;;;;4.67;2.70;;;20.60;99.90;;;;;;4994084;28;20033;-75
2022/08/01 05:49:32;;;;;;;6.60;2.53;;;20.70;99.90;;;;;;4992473;28;20038;-75
2022/08/01 05:51:57;;;;;;;6.90;3.13;;;20.80;99.90;;;;;;4994006;28;20414;-76
2022/08/01 05:54:23;;;;;;;4.53;2.77;;;20.80;99.90;;;;;;4991778;28;20045;-75
2022/08/01 05:56:49;;;;;;;4.37;2.70;;;20.90;99.90;;;;;;4993402;28;20069;-75
2022/08/01 05:59:14;;;;;;;4.10;2.73;;;21.00;99.90;;;;;;4959573;28;20042;-77
2022/08/01 06:01:41;;;;;;;7.32;3.05;;;21.10;99.90;;;;;;4992074;28;20034;-77
2022/08/01 06:04:06;;;;;;;4.43;2.67;;;21.10;99.90;;;;;;4991720;28;20065;-76
2022/08/01 06:06:32;;;;;;;4.67;2.50;;;21.10;99.90;;;;;;4992338;28;20026;-77
2022/08/01 06:08:58;;;;;;;5.73;2.80;;;21.10;99.90;;;;;;4992090;28;20165;-76
2022/08/01 06:11:24;;;;;;;3.63;2.50;;;21.10;99.90;;;;;;4993172;28;20116;-76
2022/08/01 06:13:50;;;;;;;2.83;2.43;;;21.10;99.90;;;;;;4992834;28;20026;-76
2022/08/01 06:16:16;;;;;;;5.20;2.50;;;21.10;99.90;;;;;;4992746;28;20054;-77
2022/08/01 06:18:42;;;;;;;5.20;2.78;;;21.20;99.90;;;;;;4993267;28;20058;-77
2022/08/01 06:21:08;;;;;;;4.25;2.58;;;21.10;99.90;;;;;;4992054;28;20524;-77
2022/08/01 06:23:33;;;;;;;2.50;2.30;;;21.20;99.90;;;;;;4991357;28;20342;-77
2022/08/01 06:25:59;;;;;;;3.57;2.27;;;21.20;99.90;;;;;;4991559;28;20065;-77
2022/08/01 06:28:25;;;;;;;3.23;2.33;;;21.20;99.90;;;;;;4991882;28;20395;-76
2022/08/01 06:30:51;;;;;;;4.43;2.50;;;21.30;99.90;;;;;;4991559;28;20026;-77
2022/08/01 06:33:16;;;;;;;6.40;2.70;;;21.30;99.90;;;;;;4991517;28;20453;-77
2022/08/01 06:35:42;;;;;;;4.53;2.43;;;21.40;99.90;;;;;;4991676;28;21014;-77
2022/08/01 06:38:08;;;;;;;2.60;2.20;;;21.30;99.90;;;;;;4975735;28;20030;-75
2022/08/01 06:40:34;;;;;;;3.83;2.57;;;21.30;99.90;;;;;;5001274;28;20061;-71
2022/08/01 06:42:59;;;;;;;5.43;2.53;;;21.40;99.90;;;;;;5012051;28;20041;-71
2022/08/01 06:45:26;;;;;;;5.33;2.37;;;21.50;99.90;;;;;;5012696;28;20036;-71
2022/08/01 06:47:52;;;;;;;4.90;2.55;;;21.60;99.90;;;;;;5027220;28;20044;-71
2022/08/01 06:50:18;;;;;;;6.78;2.45;;;21.60;99.90;;;;;;5012382;28;20052;-71
2022/08/01 06:52:44;;;;;;;4.63;2.13;;;21.50;99.90;;;;;;5010718;28;20449;-71
2022/08/01 06:55:09;;;;;;;3.13;2.27;;;21.60;99.90;;;;;;5011966;28;20088;-71
2022/08/01 06:57:35;;;;;;;4.07;2.27;;;21.60;99.90;;;;;;4994828;28;20375;-71
2022/08/01 07:00:06;;;;;;;4.50;2.33;;;21.70;99.90;;;;;;5010946;28;20038;-71
2022/08/01 07:02:31;;;;;;;6.00;2.30;;;21.60;99.90;;;;;;5008700;28;20022;-72
2022/08/01 07:05:00;;;;;;;3.63;2.40;;;21.60;99.90;;;;;;4992221;28;20037;-71
2022/08/01 07:07:27;;;;;;;3.30;2.17;;;21.60;99.90;;;;;;4992624;28;20149;-72
2022/08/01 07:09:52;;;;;;;4.30;2.30;;;21.70;99.90;;;;;;4994446;28;20033;-71
2022/08/01 07:12:18;;;;;;;4.67;2.10;;;21.80;99.90;;;;;;5010677;28;20096;-71
2022/08/01 07:14:44;;;;;;;4.60;2.40;;;21.80;99.90;;;;;;5011672;28;20065;-71
2022/08/01 07:17:09;;;;;;;8.17;2.43;;;21.80;99.90;;;;;;5011400;28;20489;-71
2022/08/01 07:19:36;;;;;;;3.30;2.27;;;21.80;99.90;;;;;;5010594;28;20387;-71
2022/08/01 07:22:02;;;;;;;4.65;2.33;;;21.90;99.90;;;;;;5010339;28;20370;-71
2022/08/01 07:24:29;;;;;;;5.22;2.50;;;22.00;99.90;;;;;;5010109;28;20113;-71
2022/08/01 07:26:54;;;;;;;3.60;2.15;;;22.10;99.90;;;;;;5010434;28;20494;-71
2022/08/01 07:29:29;;;;;;;4.68;2.63;;;22.20;99.90;;;;;;5010334;28;20022;-71
2022/08/01 07:31:56;;;;;;;7.35;2.65;;;22.20;99.90;;;;;;5011711;28;20090;-71
2022/08/01 07:34:23;;;;;;;4.65;2.35;;;22.30;99.90;;;;;;5010190;28;20056;-71
2022/08/01 07:36:49;;;;;;;3.25;2.30;;;22.40;99.90;;;;;;4997919;28;20067;-71
2022/08/01 07:39:14;;;;;;;7.45;3.00;;;22.50;99.90;;;;;;4990660;28;20049;-71
2022/08/01 07:41:40;;;;;;;4.37;2.63;;;22.60;99.90;;;;;;5007208;28;20431;-71
2022/08/01 07:44:06;;;;;;;3.57;2.40;;;22.60;99.90;;;;;;5009806;28;20092;-72
2022/08/01 07:46:32;;;;;;;3.10;2.20;;;22.70;99.90;;;;;;5011666;28;20275;-71
2022/08/01 07:48:57;;;;;;;4.63;2.10;;;22.60;99.90;;;;;;5010152;28;20108;-72
2022/08/01 07:51:23;;;;;;;4.30;2.43;;;22.70;99.90;;;;;;5011245;28;20101;-71
2022/08/01 07:53:49;;;;;;;2.60;2.40;;;22.70;99.90;;;;;;5010961;28;20577;-72
2022/08/01 07:56:15;;;;;;;27.90;7.83;;;22.70;99.90;;;;;;5009824;28;20030;-72
2022/08/01 07:58:40;;;;;;;2.77;2.37;;;22.70;99.90;;;;;;4993875;28;20296;-71
2022/08/01 08:01:06;;;;;;;3.93;2.63;;;22.70;99.90;;;;;;5015397;28;20375;-71
2022/08/01 08:03:32;;;;;;;3.20;2.87;;;22.70;99.90;;;;;;5013685;28;20100;-71
2022/08/01 08:05:58;;;;;;;2.80;2.30;;;22.70;99.90;;;;;;5014173;28;20482;-71
2022/08/01 08:08:23;;;;;;;4.50;2.63;;;22.70;99.90;;;;;;5006542;28;20026;-71
2022/08/01 08:10:49;;;;;;;5.53;2.87;;;22.70;99.90;;;;;;5005097;28;20061;-71
2022/08/01 08:13:15;;;;;;;5.40;2.80;;;22.80;99.90;;;;;;5014714;28;20700;-72
2022/08/01 08:15:41;;;;;;;4.17;2.53;;;22.90;99.90;;;;;;5015124;28;20315;-72
2022/08/01 08:18:06;;;;;;;3.13;2.43;;;23.00;99.90;;;;;;5015128;28;20486;-71
2022/08/01 08:20:32;;;;;;;3.57;2.37;;;23.10;99.90;;;;;;5013874;28;20694;-71
2022/08/01 08:22:58;;;;;;;5.10;3.70;;;23.20;99.90;;;;;;5013450;28;20033;-72
2022/08/01 08:25:28;;;;;;;5.30;2.63;;;23.10;99.90;;;;;;5013576;28;20045;-71
2022/08/01 08:27:54;;;;;;;3.30;2.63;;;23.20;99.90;;;;;;5013895;28;20069;-71
2022/08/01 08:30:20;;;;;;;4.30;2.67;;;23.10;99.90;;;;;;5013637;28;20056;-71
2022/08/01 08:32:45;;;;;;;4.63;2.50;;;23.20;99.90;;;;;;5029795;28;20780;-73
2022/08/01 08:35:11;;;;;;;4.50;2.30;;;23.20;99.90;;;;;;5014968;28;20030;-72
2022/08/01 08:37:37;;;;;;;3.33;2.03;;;23.20;99.90;;;;;;5014776;28;20080;-71
2022/08/01 08:40:04;;;;;;;4.65;2.22;;;23.20;99.90;;;;;;4994518;28;20288;-72
2022/08/01 08:42:30;;;;;;;2.15;1.92;;;23.20;99.90;;;;;;4994981;28;20030;-72
2022/08/01 08:44:56;;;;;;;2.47;2.07;;;23.20;99.90;;;;;;4993396;28;20041;-71
2022/08/01 08:47:22;;;;;;;4.27;2.33;;;23.30;99.90;;;;;;4994947;28;20274;-72
2022/08/01 08:49:50;;;;;;;3.60;2.30;;;23.30;99.90;;;;;;4993573;28;20027;-69
2022/08/01 08:52:19;;;;;;;2.25;2.00;;;23.30;99.90;;;;;;4993538;28;20052;-72
2022/08/01 08:54:45;;;;;;;2.13;1.42;;;23.30;99.90;;;;;;4993426;28;20085;-72
2022/08/01 08:57:10;;;;;;;1.60;1.50;;;23.30;99.90;;;;;;4993436;28;20026;-72
2022/08/01 08:59:37;;;;;;;4.07;1.40;;;23.40;99.90;;;;;;4977196;28;20041;-72
2022/08/01 09:02:04;;;;;;;1.88;1.15;;;23.50;99.90;;;;;;4993692;28;20026;-72
2022/08/01 09:04:30;;;;;;;1.55;1.45;;;23.60;99.90;;;;;;4994373;28;20042;-72
2022/08/01 09:06:55;;;;;;;3.38;1.75;;;23.60;99.90;;;;;;4993540;28;20030;-72
2022/08/01 09:09:21;;;;;;;1.83;1.60;;;23.80;99.90;;;;;;4994630;28;20030;-72
2022/08/01 09:11:47;;;;;;;2.42;1.67;;;23.80;99.90;;;;;;4992463;28;20058;-72
2022/08/01 09:14:34;;;;;;;1.45;1.35;;;23.80;99.90;;;;;;4992841;28;20117;-72
2022/08/01 09:17:07;;;;;;;1.98;1.70;;;23.80;99.90;;;;;;4993156;28;20114;-72
2022/08/01 09:19:38;;;;;;;3.55;1.63;;;23.80;99.90;;;;;;4994302;28;20077;-72
2022/08/01 09:22:07;;;;;;;4.80;1.70;;;23.90;99.90;;;;;;4992955;28;20039;-72
2022/08/01 09:24:33;;;;;;;5.72;1.58;;;24.00;99.90;;;;;;4994222;28;20022;-72
2022/08/01 09:26:59;;;;;;;2.15;1.35;;;24.10;99.90;;;;;;4992620;28;20475;-72
2022/08/01 09:29:31;;;;;;;2.20;1.63;;;24.10;99.90;;;;;;4992771;28;20046;-73
2022/08/01 09:31:59;;;;;;;2.42;1.42;;;24.10;99.90;;;;;;4992958;28;20058;-71
2022/08/01 09:34:30;;;;;;;2.58;1.45;;;24.20;99.90;;;;;;4992471;28;20030;-76
2022/08/01 09:37:01;;;;;;;2.03;1.50;;;24.30;99.90;;;;;;4976765;28;20549;-76
2022/08/01 09:39:28;;;;;;;1.45;1.30;;;24.30;99.90;;;;;;4992782;28;20089;-76
2022/08/01 09:41:56;;;;;;;1.85;1.50;;;24.30;99.90;;;;;;4976342;28;20026;-76
2022/08/01 09:44:39;;;;;;;2.13;1.50;;;24.20;99.90;;;;;;4992351;28;20394;-76
2022/08/01 09:47:05;;;;;;;1.85;1.45;;;24.20;99.90;;;;;;4992594;28;20113;-77
2022/08/01 09:49:35;;;;;;;4.10;1.20;;;24.30;99.90;;;;;;4993611;28;20113;-77
2022/08/01 09:52:22;;;;;;;1.33;1.17;;;24.20;99.90;;;;;;4992589;28;20057;-76
2022/08/01 09:55:00;;;;;;;1.83;1.30;;;24.20;99.90;;;;;;4974599;28;20061;-76
2022/08/01 09:57:26;;;;;;;1.38;1.27;;;24.20;99.90;;;;;;4992350;28;20030;-77
2022/08/01 09:59:57;;;;;;;2.65;1.50;;;24.10;99.90;;;;;;4975949;28;20038;-76
2022/08/01 10:02:37;;;;;;;1.98;1.77;;;24.00;99.90;;;;;;4968193;28;20403;-76
2022/08/01 10:05:06;;;;;;;4.05;1.30;;;24.00;99.90;;;;;;4985281;28;20027;-76
2022/08/01 10:07:32;;;;;;;3.65;1.27;;;24.00;99.90;;;;;;4976425;28;20031;-77
2022/08/01 10:10:14;;;;;;;2.58;2.17;;;24.10;99.90;;;;;;4993502;28;20030;-77
2022/08/01 10:12:41;;;;;;;3.15;1.40;;;24.10;99.90;;;;;;4992189;28;20097;-77
2022/08/01 10:15:08;;;;;;;2.10;1.50;;;24.20;99.90;;;;;;4992184;28;20035;-77
2022/08/01 10:17:33;;;;;;;2.67;1.42;;;24.30;99.90;;;;;;4959920;28;20035;-77
2022/08/01 10:19:59;;;;;;;4.63;1.63;;;24.40;99.90;;;;;;4975597;28;20066;-77
2022/08/01 10:22:26;;;;;;;3.37;2.10;;;24.50;99.90;;;;;;4991264;28;20306;-77
2022/08/01 10:24:55;;;;;;;4.47;1.85;;;24.50;99.90;;;;;;4991576;28;20344;-77
2022/08/01 10:27:20;;;;;;;1.40;1.30;;;24.50;99.90;;;;;;4991693;28;20030;-77
2022/08/01 10:29:51;;;;;;;1.73;1.63;;;24.50;99.90;;;;;;4992015;28;20037;-76
2022/08/01 10:32:17;;;;;;;1.88;1.33;;;24.50;99.90;;;;;;4991858;28;20360;-77
2022/08/01 10:34:43;;;;;;;3.22;1.63;;;24.60;99.90;;;;;;4991440;28;20105;-77
2022/08/01 10:37:09;;;;;;;4.20;1.38;;;24.70;99.90;;;;;;4991709;28;20441;-76
2022/08/01 10:39:34;;;;;;;3.28;1.58;;;24.70;99.90;;;;;;4992395;28;20589;-77
2022/08/01 10:42:01;;;;;;;1.52;1.35;;;24.80;99.90;;;;;;4993713;28;20030;-77
2022/08/01 10:44:28;;;;;;;3.92;1.38;;;25.00;99.90;;;;;;4994578;28;20033;-76
2022/08/01 10:47:13;;;;;;;1.98;1.70;;;25.00;99.90;;;;;;4978696;28;20125;-77
2022/08/01 10:50:31;;;;;;;3.08;1.50;;;25.10;99.90;;;;;;4996623;28;20037;-77
2022/08/01 10:53:17;;;;;;;1.92;1.50;;;25.20;99.90;;;;;;5011682;28;20473;-77
2022/08/01 10:55:56;;;;;;;1.80;1.40;;;25.20;99.90;;;;;;5010947;28;20033;-77
2022/08/01 10:58:47;;;;;;;2.30;1.60;;;25.20;99.90;;;;;;4995880;28;20124;-77
2022/08/01 11:01:26;;;;;;;3.38;1.40;;;25.20;99.90;;;;;;5010446;28;20033;-77
2022/08/01 11:04:02;;;;;;;3.45;1.45;;;25.20;99.90;;;;;;5011908;28;20172;-77
2022/08/01 11:06:34;;;;;;;2.97;1.80;;;25.20;99.90;;;;;;5012111;28;20052;-77
2022/08/01 11:09:04;;;;;;;1.42;1.33;;;25.10;99.90;;;;;;5010664;28;20030;-77
2022/08/01 11:11:29;;;;;;;1.40;1.27;;;25.10;99.90;;;;;;4994593;28;20118;-77
2022/08/01 11:14:02;;;;;;;3.10;1.70;;;25.10;99.90;;;;;;4977686;28;20106;-78
2022/08/01 11:16:28;;;;;;;1.98;1.67;;;25.00;99.90;;;;;;5011044;28;20077;-77
2022/08/01 11:18:54;;;;;;;2.00;1.77;;;25.00;99.90;;;;;;5010617;28;20037;-77
2022/08/01 11:21:23;;;;;;;4.05;1.60;;;24.90;99.90;;;;;;4994392;28;20042;-77
2022/08/01 11:23:53;;;;;;;1.85;1.50;;;24.90;99.90;;;;;;5010614;28;20036;-77
2022/08/01 11:26:19;;;;;;;2.72;1.70;;;24.90;99.90;;;;;;4994553;28;20033;-77
2022/08/01 11:28:46;;;;;;;2.13;1.60;;;25.00;99.90;;;;;;5011817;28;20036;-77
2022/08/01 11:31:12;;;;;;;3.45;1.70;;;25.10;99.90;;;;;;4999784;28;20026;-77
2022/08/01 11:33:41;;;;;;;1.83;1.70;;;25.30;99.90;;;;;;4991584;28;20049;-78
2022/08/01 11:36:12;;;;;;;2.65;1.40;;;25.40;99.90;;;;;;4991598;28;20265;-77
2022/08/01 11:39:05;;;;;;;1.90;1.70;;;25.60;99.90;;;;;;4990741;28;20030;-77
2022/08/01 11:41:33;;;;;;;2.17;1.23;;;25.70;99.90;;;;;;4978752;28;20046;-77
2022/08/01 11:44:27;;;;;;;3.42;1.70;;;25.90;99.90;;;;;;4973908;28;20066;-77
2022/08/01 11:47:01;;;;;;;3.75;1.38;;;26.10;99.90;;;;;;4988551;28;20033;-77
2022/08/01 11:49:36;;;;;;;2.08;1.55;;;26.10;98.10;;;;;;4990636;28;20026;-78
2022/08/01 11:52:15;;;;;;;1.88;1.42;;;26.20;99.90;;;;;;4991690;28;20037;-78
2022/08/01 11:54:50;;;;;;;2.17;1.30;;;26.00;98.40;;;;;;4989554;28;20057;-77
2022/08/01 11:57:24;;;;;;;4.28;2.10;;;25.90;97.00;;;;;;4991422;28;20034;-77
2022/08/01 11:59:54;;;;;;;4.05;2.05;;;25.90;98.80;;;;;;4952728;28;20043;-77
2022/08/01 12:02:25;;;;;;;2.47;2.20;;;25.90;99.90;;;;;;4971270;28;20090;-77
2022/08/01 12:05:09;;;;;;;3.92;2.80;;;26.10;99.90;;;;;;4970742;28;20033;-78
2022/08/01 12:07:36;;;;;;;3.58;2.95;;;26.10;99.90;;;;;;4971251;28;20033;-77
2022/08/01 12:10:12;;;;;;;4.28;2.85;;;26.20;99.90;;;;;;4959177;28;20422;-77
2022/08/01 12:12:55;;;;;;;6.20;3.70;;;26.30;99.90;;;;;;4974134;28;20070;-78
2022/08/01 12:15:23;;;;;;;3.92;2.75;;;26.20;99.90;;;;;;4987749;28;20054;-77
2022/08/01 12:18:09;;;;;;;5.47;2.63;;;26.30;99.90;;;;;;4973979;28;20707;-76
2022/08/01 12:20:40;;;;;;;5.28;2.30;;;26.40;99.90;;;;;;4989882;28;20046;-78
2022/08/01 12:23:12;;;;;;;2.33;2.00;;;26.70;99.90;;;;;;4974415;28;20031;-78
2022/08/01 12:25:39;;;;;;;4.00;2.53;;;27.10;99.90;;;;;;4974275;28;20072;-78
2022/08/01 12:28:07;;;;;;;2.22;2.03;;;27.40;99.90;;;;;;4990089;28;20034;-78
2022/08/01 12:30:37;;;;;;;3.72;2.45;;;27.60;99.90;;;;;;4974420;28;20118;-77
2022/08/01 12:33:08;;;;;;;3.63;2.55;;;28.00;99.90;;;;;;4989981;28;20037;-78
2022/08/01 12:35:36;;;;;;;3.22;1.92;;;28.30;99.90;;;;;;4974346;28;20173;-77
2022/08/01 12:38:05;;;;;;;2.35;2.15;;;28.70;99.90;;;;;;4958552;28;20030;-78
2022/08/01 12:40:36;;;;;;;4.13;2.25;;;29.10;99.30;;;;;;4964042;28;20033;-78
2022/08/01 12:43:04;;;;;;;2.67;2.13;;;29.40;97.10;;;;;;4955152;28;20023;-78
2022/08/01 12:45:36;;;;;;;3.10;2.13;;;29.80;94.50;;;;;;4971925;28;20043;-78
2022/08/01 12:48:03;;;;;;;3.05;2.13;;;30.00;86.50;;;;;;4958928;28;20523;-78
2022/08/01 12:50:30;;;;;;;2.58;1.92;;;30.10;91.20;;;;;;4975686;28;20173;-79
2022/08/01 12:52:56;;;;;;;3.33;2.60;;;30.20;82.70;;;;;;4961884;28;20359;-79
2022/08/01 12:55:26;;;;;;;3.42;2.00;;;30.20;89.40;;;;;;4978476;28;20022;-79